sensor_id;sensor_type;location;lat;lon;timestamp;pressure;altitude;pressure_sealevel;temperature;humidity
41573;BME280;27286;47.870;19.006;2022-08-14T15:40:30;98415.06;;;39.51;17.85
41573;BME280;27286;47.870;19.006;2022-08-14T15:42:58;98408.03;;;39.09;17.92
41573;BME280;27286;47.870;19.006;2022-08-14T15:45:23;98417.28;;;39.03;18.03
41573;BME280;27286;47.870;19.006;2022-08-14T15:47:49;98413.47;;;38.84;17.92
41573;BME280;27286;47.870;19.006;2022-08-14T15:50:14;98403.31;;;38.59;18.69
41573;BME280;27286;47.870;19.006;2022-08-14T15:52:40;98401.34;;;38.29;19.40
41573;BME280;27286;47.870;19.006;2022-08-14T15:55:11;98410.72;;;37.96;19.85
41573;BME280;27286;47.870;19.006;2022-08-14T15:57:37;98398.06;;;37.64;20.47
41573;BME280;27286;47.870;19.006;2022-08-14T16:00:05;98407.16;;;36.79;20.77
41573;BME280;27286;47.870;19.006;2022-08-14T16:02:50;98396.00;;;35.99;21.71
41573;BME280;27286;47.870;19.006;2022-08-14T16:05:15;98401.09;;;35.57;22.49
41573;BME280;27286;47.870;19.006;2022-08-14T16:07:47;98399.97;;;35.19;23.03
41573;BME280;27286;47.870;19.006;2022-08-14T16:10:14;98410.31;;;34.89;23.27
41573;BME280;27286;47.870;19.006;2022-08-14T16:12:39;98415.09;;;34.70;23.07
41573;BME280;27286;47.870;19.006;2022-08-14T16:15:05;98410.81;;;34.86;22.53
41573;BME280;27286;47.870;19.006;2022-08-14T16:17:35;98417.22;;;34.96;22.35
41573;BME280;27286;47.870;19.006;2022-08-14T16:20:07;98398.03;;;34.98;22.15
41573;BME280;27286;47.870;19.006;2022-08-14T16:22:34;98396.78;;;34.89;22.64
41573;BME280;27286;47.870;19.006;2022-08-14T16:25:00;98412.66;;;34.40;23.33
41573;BME280;27286;47.870;19.006;2022-08-14T16:27:26;98406.75;;;34.03;23.76
41573;BME280;27286;47.870;19.006;2022-08-14T16:29:52;98408.44;;;33.69;24.03
41573;BME280;27286;47.870;19.006;2022-08-14T16:32:17;98410.59;;;33.43;24.28
41573;BME280;27286;47.870;19.006;2022-08-14T16:34:44;98404.09;;;33.21;24.23
41573;BME280;27286;47.870;19.006;2022-08-14T16:37:13;98410.88;;;33.00;24.69
41573;BME280;27286;47.870;19.006;2022-08-14T16:39:44;98404.81;;;32.75;25.03
41573;BME280;27286;47.870;19.006;2022-08-14T16:42:11;98407.44;;;32.51;25.44
41573;BME280;27286;47.870;19.006;2022-08-14T16:44:37;98410.31;;;32.38;25.25
41573;BME280;27286;47.870;19.006;2022-08-14T16:47:09;98414.63;;;32.27;25.65
41573;BME280;27286;47.870;19.006;2022-08-14T16:49:42;98410.66;;;32.12;26.02
41573;BME280;27286;47.870;19.006;2022-08-14T16:52:10;98408.47;;;32.02;26.75
41573;BME280;27286;47.870;19.006;2022-08-14T16:54:40;98406.53;;;31.91;27.63
41573;BME280;27286;47.870;19.006;2022-08-14T16:57:22;98409.63;;;31.76;28.06
41573;BME280;27286;47.870;19.006;2022-08-14T16:59:51;98408.53;;;31.59;29.01
41573;BME280;27286;47.870;19.006;2022-08-14T17:02:40;98413.03;;;31.40;29.84
41573;BME280;27286;47.870;19.006;2022-08-14T17:05:26;98406.81;;;31.21;30.08
41573;BME280;27286;47.870;19.006;2022-08-14T17:08:15;98401.63;;;30.95;30.84
41573;BME280;27286;47.870;19.006;2022-08-14T17:13:20;98409.66;;;30.70;31.58
41573;BME280;27286;47.870;19.006;2022-08-14T17:16:22;98414.47;;;30.54;31.28
41573;BME280;27286;47.870;19.006;2022-08-14T17:18:50;98416.44;;;30.41;31.41
41573;BME280;27286;47.870;19.006;2022-08-14T17:21:27;98422.25;;;30.31;31.80
41573;BME280;27286;47.870;19.006;2022-08-14T17:24:02;98421.72;;;30.16;32.16
41573;BME280;27286;47.870;19.006;2022-08-14T17:26:40;98430.41;;;29.98;33.52
41573;BME280;27286;47.870;19.006;2022-08-14T17:29:24;98430.03;;;29.88;33.46
41573;BME280;27286;47.870;19.006;2022-08-14T17:31:53;98416.66;;;29.68;33.73
41573;BME280;27286;47.870;19.006;2022-08-14T17:34:26;98436.47;;;29.67;32.91
41573;BME280;27286;47.870;19.006;2022-08-14T17:37:07;98429.28;;;29.54;32.83
41573;BME280;27286;47.870;19.006;2022-08-14T17:39:34;98429.06;;;29.43;33.01
41573;BME280;27286;47.870;19.006;2022-08-14T17:41:59;98443.28;;;29.36;33.22
41573;BME280;27286;47.870;19.006;2022-08-14T17:44:29;98441.88;;;29.27;33.18
41573;BME280;27286;47.870;19.006;2022-08-14T17:46:58;98440.22;;;29.13;33.61
41573;BME280;27286;47.870;19.006;2022-08-14T17:49:29;98438.34;;;28.94;33.66
41573;BME280;27286;47.870;19.006;2022-08-14T17:52:08;98443.09;;;28.92;34.06
41573;BME280;27286;47.870;19.006;2022-08-14T17:54:36;98442.47;;;28.90;34.55
41573;BME280;27286;47.870;19.006;2022-08-14T17:57:14;98450.66;;;28.82;35.36
41573;BME280;27286;47.870;19.006;2022-08-14T17:59:44;98430.84;;;28.69;35.71
41573;BME280;27286;47.870;19.006;2022-08-14T18:02:32;98437.66;;;28.65;35.43
41573;BME280;27286;47.870;19.006;2022-08-14T18:04:59;98434.16;;;28.58;35.45
41573;BME280;27286;47.870;19.006;2022-08-14T18:07:26;98432.47;;;28.51;35.78
41573;BME280;27286;47.870;19.006;2022-08-14T18:09:55;98439.88;;;28.42;36.38
41573;BME280;27286;47.870;19.006;2022-08-14T18:12:23;98442.91;;;28.32;36.52
41573;BME280;27286;47.870;19.006;2022-08-14T18:14:49;98440.84;;;28.28;36.65
41573;BME280;27286;47.870;19.006;2022-08-14T18:17:15;98442.28;;;28.30;36.38
41573;BME280;27286;47.870;19.006;2022-08-14T18:19:43;98437.72;;;28.24;36.14
41573;BME280;27286;47.870;19.006;2022-08-14T18:22:09;98429.22;;;28.14;36.95
41573;BME280;27286;47.870;19.006;2022-08-14T18:24:36;98423.00;;;28.00;37.23
41573;BME280;27286;47.870;19.006;2022-08-14T18:29:31;98422.56;;;27.90;37.21
41573;BME280;27286;47.870;19.006;2022-08-14T18:31:58;98432.78;;;27.80;37.56
41573;BME280;27286;47.870;19.006;2022-08-14T18:34:34;98427.34;;;27.67;37.87
41573;BME280;27286;47.870;19.006;2022-08-14T18:37:01;98433.44;;;27.61;38.01
41573;BME280;27286;47.870;19.006;2022-08-14T18:39:33;98428.03;;;27.54;38.41
41573;BME280;27286;47.870;19.006;2022-08-14T18:47:24;98426.44;;;27.25;39.51
41573;BME280;27286;47.870;19.006;2022-08-14T19:03:06;98429.34;;;26.87;39.45
41573;BME280;27286;47.870;19.006;2022-08-14T19:10:57;98433.81;;;26.59;40.41
41573;BME280;27286;47.870;19.006;2022-08-14T19:13:37;98433.66;;;26.46;41.07
41573;BME280;27286;47.870;19.006;2022-08-14T19:16:12;98424.75;;;26.38;41.84
41573;BME280;27286;47.870;19.006;2022-08-14T19:26:33;98448.66;;;26.17;43.10
41573;BME280;27286;47.870;19.006;2022-08-14T19:29:34;98446.22;;;26.01;42.75
41573;BME280;27286;47.870;19.006;2022-08-14T19:32:02;98444.84;;;25.90;42.82
41573;BME280;27286;47.870;19.006;2022-08-14T19:34:41;98447.53;;;25.90;43.04
41573;BME280;27286;47.870;19.006;2022-08-14T19:37:43;98448.25;;;25.84;42.60
41573;BME280;27286;47.870;19.006;2022-08-14T19:40:10;98437.88;;;25.74;42.96
41573;BME280;27286;47.870;19.006;2022-08-14T19:42:37;98437.75;;;25.68;43.14
41573;BME280;27286;47.870;19.006;2022-08-14T19:45:03;98445.38;;;25.56;43.71
41573;BME280;27286;47.870;19.006;2022-08-14T19:47:37;98442.88;;;25.40;44.57
41573;BME280;27286;47.870;19.006;2022-08-14T19:50:05;98447.53;;;25.23;44.98
41573;BME280;27286;47.870;19.006;2022-08-14T19:52:33;98436.66;;;25.10;44.86
41573;BME280;27286;47.870;19.006;2022-08-14T19:54:59;98429.66;;;25.09;44.84
41573;BME280;27286;47.870;19.006;2022-08-14T19:57:26;98443.81;;;25.09;44.80
41573;BME280;27286;47.870;19.006;2022-08-14T20:00:10;98433.16;;;25.09;45.05
41573;BME280;27286;47.870;19.006;2022-08-14T20:02:38;98430.22;;;25.04;45.09
41573;BME280;27286;47.870;19.006;2022-08-14T20:05:06;98431.56;;;25.00;44.97
41573;BME280;27286;47.870;19.006;2022-08-14T20:07:35;98428.75;;;24.94;45.09
41573;BME280;27286;47.870;19.006;2022-08-14T20:10:03;98430.97;;;24.90;45.15
41573;BME280;27286;47.870;19.006;2022-08-14T20:12:28;98434.81;;;24.87;45.45
41573;BME280;27286;47.870;19.006;2022-08-14T20:14:54;98431.47;;;24.85;45.31
41573;BME280;27286;47.870;19.006;2022-08-14T20:17:20;98426.50;;;24.82;45.59
41573;BME280;27286;47.870;19.006;2022-08-14T20:19:46;98432.47;;;24.84;45.18
41573;BME280;27286;47.870;19.006;2022-08-14T20:22:14;98427.69;;;24.80;45.76
41573;BME280;27286;47.870;19.006;2022-08-14T20:24:42;98437.50;;;24.79;45.93
41573;BME280;27286;47.870;19.006;2022-08-14T20:32:56;98451.22;;;24.68;46.18
41573;BME280;27286;47.870;19.006;2022-08-14T20:38:23;98453.94;;;24.60;46.62
41573;BME280;27286;47.870;19.006;2022-08-14T20:43:19;98460.56;;;24.41;46.78
41573;BME280;27286;47.870;19.006;2022-08-14T20:46:17;98459.94;;;24.31;47.12
41573;BME280;27286;47.870;19.006;2022-08-14T20:49:07;98461.31;;;24.19;47.50
41573;BME280;27286;47.870;19.006;2022-08-14T20:54:09;98453.06;;;24.06;47.91
41573;BME280;27286;47.870;19.006;2022-08-14T20:56:40;98452.91;;;23.99;47.90
41573;BME280;27286;47.870;19.006;2022-08-14T20:59:15;98450.59;;;23.96;47.97
41573;BME280;27286;47.870;19.006;2022-08-14T21:01:44;98460.22;;;23.97;47.59
41573;BME280;27286;47.870;19.006;2022-08-14T21:06:50;98458.78;;;23.86;48.18
41573;BME280;27286;47.870;19.006;2022-08-14T21:09:16;98448.50;;;23.75;48.36
41573;BME280;27286;47.870;19.006;2022-08-14T21:11:43;98445.50;;;23.78;48.33
41573;BME280;27286;47.870;19.006;2022-08-14T21:14:25;98449.81;;;23.79;48.21
41573;BME280;27286;47.870;19.006;2022-08-14T21:16:52;98456.44;;;23.83;48.34
41573;BME280;27286;47.870;19.006;2022-08-14T21:19:22;98443.84;;;23.77;48.22
41573;BME280;27286;47.870;19.006;2022-08-14T21:21:55;98456.66;;;23.74;48.26
41573;BME280;27286;47.870;19.006;2022-08-14T21:24:22;98457.66;;;23.64;48.52
41573;BME280;27286;47.870;19.006;2022-08-14T21:26:52;98462.47;;;23.61;48.71
41573;BME280;27286;47.870;19.006;2022-08-14T21:29:19;98469.63;;;23.60;48.87
41573;BME280;27286;47.870;19.006;2022-08-14T21:31:45;98463.81;;;23.57;49.08
41573;BME280;27286;47.870;19.006;2022-08-14T21:34:12;98466.63;;;23.55;49.09
41573;BME280;27286;47.870;19.006;2022-08-14T21:36:40;98462.13;;;23.48;49.46
41573;BME280;27286;47.870;19.006;2022-08-14T21:39:06;98467.44;;;23.48;49.19
41573;BME280;27286;47.870;19.006;2022-08-14T21:41:41;98471.94;;;23.47;49.58
41573;BME280;27286;47.870;19.006;2022-08-14T21:44:06;98461.47;;;23.46;49.48
41573;BME280;27286;47.870;19.006;2022-08-14T21:46:45;98466.63;;;23.47;49.41
41573;BME280;27286;47.870;19.006;2022-08-14T21:49:25;98459.00;;;23.44;49.57
41573;BME280;27286;47.870;19.006;2022-08-14T21:51:57;98454.69;;;23.43;49.60
41573;BME280;27286;47.870;19.006;2022-08-14T21:54:24;98454.19;;;23.39;49.70
41573;BME280;27286;47.870;19.006;2022-08-14T21:56:50;98460.84;;;23.35;49.65
41573;BME280;27286;47.870;19.006;2022-08-14T21:59:19;98448.06;;;23.23;50.07
41573;BME280;27286;47.870;19.006;2022-08-14T22:01:50;98460.50;;;23.30;49.96
41573;BME280;27286;47.870;19.006;2022-08-14T22:04:16;98456.38;;;23.20;50.09
41573;BME280;27286;47.870;19.006;2022-08-14T22:06:42;98455.56;;;23.03;50.40
41573;BME280;27286;47.870;19.006;2022-08-14T22:09:09;98461.69;;;23.03;50.81
41573;BME280;27286;47.870;19.006;2022-08-14T22:11:36;98450.41;;;22.93;51.06
41573;BME280;27286;47.870;19.006;2022-08-14T22:14:02;98453.88;;;22.94;51.22
41573;BME280;27286;47.870;19.006;2022-08-14T22:16:29;98447.25;;;22.90;51.38
41573;BME280;27286;47.870;19.006;2022-08-14T22:18:56;98449.56;;;22.85;51.18
41573;BME280;27286;47.870;19.006;2022-08-14T22:21:22;98454.03;;;22.92;51.01
41573;BME280;27286;47.870;19.006;2022-08-14T22:23:48;98448.59;;;22.86;51.39
41573;BME280;27286;47.870;19.006;2022-08-14T22:26:15;98452.50;;;22.81;51.55
41573;BME280;27286;47.870;19.006;2022-08-14T22:28:40;98445.34;;;22.66;51.58
41573;BME280;27286;47.870;19.006;2022-08-14T22:31:09;98454.97;;;22.67;51.97
41573;BME280;27286;47.870;19.006;2022-08-14T22:33:35;98449.81;;;22.57;51.87
41573;BME280;27286;47.870;19.006;2022-08-14T22:36:02;98452.97;;;22.61;52.08
41573;BME280;27286;47.870;19.006;2022-08-14T22:38:48;98451.81;;;22.63;52.10
41573;BME280;27286;47.870;19.006;2022-08-14T22:41:13;98448.50;;;22.61;52.31
41573;BME280;27286;47.870;19.006;2022-08-14T22:43:39;98445.34;;;22.58;52.41
41573;BME280;27286;47.870;19.006;2022-08-14T22:46:05;98449.16;;;22.55;52.24
41573;BME280;27286;47.870;19.006;2022-08-14T22:48:31;98442.66;;;22.49;52.57
41573;BME280;27286;47.870;19.006;2022-08-14T22:50:57;98439.84;;;22.43;52.60
41573;BME280;27286;47.870;19.006;2022-08-14T22:53:23;98448.13;;;22.40;52.64
41573;BME280;27286;47.870;19.006;2022-08-14T22:55:50;98440.13;;;22.32;52.69
41573;BME280;27286;47.870;19.006;2022-08-14T22:58:16;98431.84;;;22.18;53.07
41573;BME280;27286;47.870;19.006;2022-08-14T23:00:42;98444.41;;;22.16;53.67
41573;BME280;27286;47.870;19.006;2022-08-14T23:03:11;98448.22;;;22.14;53.68
41573;BME280;27286;47.870;19.006;2022-08-14T23:05:39;98444.22;;;22.10;53.87
41573;BME280;27286;47.870;19.006;2022-08-14T23:08:06;98446.66;;;22.03;53.83
41573;BME280;27286;47.870;19.006;2022-08-14T23:10:31;98445.66;;;22.04;53.78
41573;BME280;27286;47.870;19.006;2022-08-14T23:12:57;98451.66;;;22.06;53.55
41573;BME280;27286;47.870;19.006;2022-08-14T23:15:23;98445.16;;;22.01;53.75
41573;BME280;27286;47.870;19.006;2022-08-14T23:17:50;98443.81;;;21.97;53.90
41573;BME280;27286;47.870;19.006;2022-08-14T23:20:19;98444.78;;;21.87;54.21
41573;BME280;27286;47.870;19.006;2022-08-14T23:22:47;98441.75;;;21.82;54.31
41573;BME280;27286;47.870;19.006;2022-08-14T23:25:13;98429.88;;;21.60;55.16
41573;BME280;27286;47.870;19.006;2022-08-14T23:27:43;98426.22;;;21.53;55.24
41573;BME280;27286;47.870;19.006;2022-08-14T23:30:10;98436.84;;;21.61;55.21
41573;BME280;27286;47.870;19.006;2022-08-14T23:32:47;98436.06;;;21.69;55.24
41573;BME280;27286;47.870;19.006;2022-08-14T23:35:15;98434.72;;;21.65;55.21
41573;BME280;27286;47.870;19.006;2022-08-14T23:37:40;98432.06;;;21.65;55.16
41573;BME280;27286;47.870;19.006;2022-08-14T23:40:09;98435.53;;;21.66;55.05
41573;BME280;27286;47.870;19.006;2022-08-14T23:42:35;98438.34;;;21.64;55.05
41573;BME280;27286;47.870;19.006;2022-08-14T23:45:00;98443.44;;;21.57;55.32
41573;BME280;27286;47.870;19.006;2022-08-14T23:47:26;98432.28;;;21.46;55.43
41573;BME280;27286;47.870;19.006;2022-08-14T23:49:55;98438.06;;;21.41;55.74
41573;BME280;27286;47.870;19.006;2022-08-14T23:52:21;98422.31;;;21.40;55.51
41573;BME280;27286;47.870;19.006;2022-08-14T23:54:46;98427.16;;;21.44;55.44
41573;BME280;27286;47.870;19.006;2022-08-14T23:57:11;98431.09;;;21.40;55.79
41573;BME280;27286;47.870;19.006;2022-08-14T23:59:37;98429.59;;;21.38;55.55
